Buoy 17652

sailwx.info

Track history (hours):
 
Tides and Currents Weather Stations Pressure Air Temp Water Temp Dewpoint Dewpoint Depression Visibility Wind Speed Wind Dir Waves Ship Positions

Drifting buoy 17652

Last reported at 2018-Jan-19 10:00 UTC. Time now 2018-Jan-19 11:45 UTC.
Position S 37°02' E 069°22'.

Barometer 1027.9 mb
Water temperature 20.1 ° C

Date/timePositionNaut miles runAvg speedWind from/ knotsBaromVisibWave heightAir tempDewpointWater temp
2018-Jan-19 10:00S 37°02' E 069°22'2 0.4 1027.9 20.1
2018-Jan-19 05:00S 37°01' E 069°23'0 0.5 1029.4 18.9
2018-Jan-19 04:00S 37°01' E 069°22'0 0.5 1029.3 18.8
2018-Jan-19 03:00S 37°01' E 069°23'0 0.0 1029.6 18.7
2018-Jan-19 02:00S 37°01' E 069°23'1 0.6 1029.7 18.7
2018-Jan-19 01:00S 37°00' E 069°23'0 0.2 1029.4 18.6
2018-Jan-18 23:00S 37°00' E 069°23'0 0.5 1029.1 18.7
2018-Jan-18 22:00S 37°00' E 069°24'1 0.2 1028.9 18.7
2018-Jan-18 18:00S 37°00' E 069°25'0 0.0 1029.7 18.8
2018-Jan-18 17:00S 37°00' E 069°25'0 0.2 1029.9 18.8
2018-Jan-18 15:00S 37°00' E 069°25'1 0.8 1029.2 18.9
2018-Jan-18 14:00S 36°59' E 069°24'0 0.5 1028.7 19.0
2018-Jan-18 13:00S 36°59' E 069°25'2 1.9 1028.5 19.0
2018-Jan-18 12:00S 36°58' E 069°24'4 2.2 1028.6 19.1
2018-Jan-18 10:00S 36°53' E 069°25'0 0.0 1029.0 19.2
2018-Jan-18 05:00S 36°53' E 069°25'0 0.0 1029.8 18.9
2018-Jan-18 04:00S 36°53' E 069°25'3 1.3 1030.0 18.9
2018-Jan-18 02:00S 36°52' E 069°28'0 0.0 1030.3 18.9
2018-Jan-18 01:00S 36°52' E 069°28'0 0.0 1030.0 18.9
2018-Jan-18 00:00S 36°52' E 069°28'0 0.0 1029.6 18.9
2018-Jan-17 23:00S 36°52' E 069°28'0 0.5 1029.3 19.0
2018-Jan-17 22:00S 36°52' E 069°29'0 0.5 1029.3 19.0
2018-Jan-17 21:00S 36°52' E 069°28'0 0.0 1029.8 19.0
2018-Jan-17 18:00S 36°52' E 069°28'1 1.2 1030.7 19.1
2018-Jan-17 17:00S 36°51' E 069°28'1 0.6 1030.7 19.1
2018-Jan-17 16:00S 36°52' E 069°28'1 1.2 1030.5 19.1
2018-Jan-17 15:00S 36°50' E 069°28'1 0.8 1030.2 19.1
2018-Jan-17 14:00S 36°50' E 069°28'1 1.3 1030.3 19.1
2018-Jan-17 13:00S 36°49' E 069°28'0 0.0 1029.8 19.1
2018-Jan-17 12:00S 36°49' E 069°28'2 1.5 1029.6 19.1
2018-Jan-17 11:00S 36°47' E 069°29'4 4.4 1029.9 19.1
2018-Jan-17 10:00S 36°47' E 069°35'1 0.2 1030.2 19.1
2018-Jan-17 05:00S 36°47' E 069°36'0 0.0 1030.9 18.8
2018-Jan-17 04:00S 36°47' E 069°36'1 0.8 1031.0 18.8
2018-Jan-17 03:00S 36°48' E 069°37'1 0.8 1031.0 18.8
2018-Jan-17 02:00S 36°49' E 069°37'0 0.0 1030.9 18.8
2018-Jan-17 01:00S 36°49' E 069°37'0 0.5 1030.8 18.8
2018-Jan-17 00:00S 36°49' E 069°37'0 0.0 1030.6 18.8
2018-Jan-16 23:00S 36°49' E 069°37'2 1.5 1030.4 18.8
2018-Jan-16 22:00S 36°47' E 069°35'0 0.0 1030.5 18.7
2018-Jan-16 21:00S 36°47' E 069°35'7 0.5 1030.6 18.8
2018-Jan-16 05:00S 36°47' E 069°44'1 1.1 1032.2 18.6
2018-Jan-16 04:00S 36°47' E 069°43'1 0.6 1032.0 18.6
2018-Jan-16 03:00S 36°47' E 069°43'0 0.0 1031.7 18.6
2018-Jan-16 02:00S 36°47' E 069°43'1 0.8 1031.3 18.6
2018-Jan-16 01:00S 36°46' E 069°43'0 0.5 1031.1 18.6
2018-Jan-16 00:00S 36°46' E 069°43'1 1.2 1030.9 18.5
2018-Jan-15 23:00S 36°45' E 069°43'0 0.5 1030.7 18.5
2018-Jan-15 22:00S 36°45' E 069°43'0 0.0 1030.8 18.5
2018-Jan-15 21:00S 36°45' E 069°43'5 1.0 1031.1 18.5
2018-Jan-15 16:00S 36°44' E 069°49'2 1.5 1030.8 18.5
2018-Jan-15 15:00S 36°46' E 069°50'1 0.8 1030.3 18.5
2018-Jan-15 14:00S 36°46' E 069°50'1 0.8 1030.0 18.5
2018-Jan-15 13:00S 36°47' E 069°51'1 0.6 1029.2 18.5
2018-Jan-15 12:00S 36°47' E 069°51'1 0.8 1029.0 18.6
2018-Jan-15 11:00S 36°48' E 069°50'1 1.1 1029.1 18.5
2018-Jan-15 10:00S 36°49' E 069°49'0 0.0 1029.2 18.5
2018-Jan-15 05:00S 36°49' E 069°49'0 0.5 1027.5 18.3
2018-Jan-15 04:00S 36°49' E 069°49'0 0.0 1027.3 18.2
2018-Jan-15 03:00S 36°49' E 069°49'1 1.0 1026.6 18.2
2018-Jan-15 02:00S 36°49' E 069°50'1 0.8 1026.0 18.2
2018-Jan-15 01:00S 36°48' E 069°49'5 4.9 1025.4 18.3
2018-Jan-15 00:00S 36°50' E 069°55'0 0.0 1024.6 18.3
2018-Jan-14 22:00S 36°50' E 069°55'0 0.0 1023.6 18.4
2018-Jan-14 21:00S 36°50' E 069°55'1 0.4 1023.2 18.4
2018-Jan-14 18:00S 36°52' E 069°55'0 0.0 1022.1 18.5
2018-Jan-14 17:00S 36°52' E 069°55'1 1.3 1021.6 18.6
2018-Jan-14 16:00S 36°53' E 069°55'0 0.0 1020.7 18.6
2018-Jan-14 15:00S 36°53' E 069°55'2 1.5 1019.6 18.6
2018-Jan-14 14:00S 36°54' E 069°54'1 0.8 1018.7 18.6
2018-Jan-14 13:00S 36°55' E 069°53'1 0.6 1017.9 18.7
2018-Jan-14 12:00S 36°55' E 069°53'3 2.9 1016.9 18.7
2018-Jan-14 11:00S 36°55' E 069°50'2 1.6 1016.6 18.7
2018-Jan-14 10:00S 36°56' E 069°52'1 0.3 1016.4 18.7
2018-Jan-14 05:00S 36°56' E 069°50'0 0.5 1014.0 18.7
2018-Jan-14 04:00S 36°56' E 069°50'0 0.0 1013.3 18.7
2018-Jan-14 03:00S 36°56' E 069°50'1 0.6 1013.0 18.7
2018-Jan-14 02:00S 36°56' E 069°50'1 1.0 1012.3 18.7
2018-Jan-14 01:00S 36°56' E 069°52'2 2.0 1011.8 18.7
2018-Jan-14 00:00S 36°58' E 069°53'2 1.9 1011.1 18.8
2018-Jan-13 23:00S 37°00' E 069°53'17 0.5 1010.3 18.8
2018-Jan-12 13:00S 37°02' E 069°32'0 0.0 1014.4 19.1
2018-Jan-12 12:00S 37°02' E 069°32'3 2.8 1014.1 19.1
2018-Jan-12 11:00S 37°04' E 069°34'1 0.1 1014.4 19.1
2018-Jan-12 05:00S 37°05' E 069°34'2 2.0 1012.8 19.0
2018-Jan-12 04:00S 37°07' E 069°32'0 0.5 1012.2 19.0
2018-Jan-12 03:00S 37°07' E 069°33'4 4.2 1011.7 18.9
2018-Jan-12 02:00S 37°08' E 069°28'2 1.6 1011.1 18.9
2018-Jan-12 01:00S 37°08' E 069°30'2 1.6 1010.1 18.8
2018-Jan-12 00:00S 37°08' E 069°28'0 0.5 1009.4 18.8
2018-Jan-11 23:00S 37°08' E 069°28'2 1.9 1008.9 18.8
2018-Jan-11 22:00S 37°08' E 069°25'0 0.0 1008.1 18.8
2018-Jan-11 21:00S 37°08' E 069°25'2 2.3 1007.7 18.8
2018-Jan-11 20:00S 37°07' E 069°23'0 0.0 1007.5 18.8
2018-Jan-11 18:00S 37°07' E 069°23'1 0.6 1006.6 18.7
2018-Jan-11 17:00S 37°07' E 069°23'1 0.6 1006.2 18.7
2018-Jan-11 16:00S 37°06' E 069°23'0 0.5 1005.4 18.7
2018-Jan-11 15:00S 37°06' E 069°23'1 0.3 1004.7 18.7
2018-Jan-11 13:00S 37°07' E 069°23'0 0.0 1003.5 18.9
2018-Jan-11 12:00S 37°07' E 069°23'0 0.0 1002.7 19.0
2018-Jan-11 11:00S 37°07' E 069°23'8 8.4 1002.7 19.2
2018-Jan-11 10:00S 37°13' E 069°17'0 0.1 1002.2 19.3
2018-Jan-11 05:00S 37°13' E 069°16'2 2.0 996.8 19.8
2018-Jan-11 04:00S 37°14' E 069°14'2 1.6 995.0 19.8
2018-Jan-11 03:00S 37°14' E 069°12'1 1.1 992.7 19.9
2018-Jan-11 02:00S 37°14' E 069°11'0 0.0 991.8 20.0
2018-Jan-11 01:00S 37°14' E 069°11'2 1.6 991.1 20.0
2018-Jan-11 00:00S 37°13' E 069°09'0 0.0 990.3 20.0
2018-Jan-10 23:00S 37°13' E 069°09'1 0.6 990.2 20.0
2018-Jan-10 22:00S 37°13' E 069°09'3 0.7 991.9 20.0
2018-Jan-10 18:00S 37°10' E 069°11'1 0.6 1001.1 20.2
2018-Jan-10 17:00S 37°10' E 069°11'0 0.0 1003.4 20.1
2018-Jan-10 16:00S 37°10' E 069°11'0 0.0 1005.4 20.2
2018-Jan-10 15:00S 37°10' E 069°11'1 1.0 1006.4 20.3
2018-Jan-10 14:00S 37°10' E 069°10'1 0.3 1008.1 20.4
2018-Jan-10 12:00S 37°09' E 069°10'2 0.8 1009.7 20.5
2018-Jan-10 10:00S 37°08' E 069°08'4 0.9 1012.5 20.5
2018-Jan-10 05:00S 37°04' E 069°07'0 0.0 1016.2 20.3
2018-Jan-10 04:00S 37°04' E 069°07'1 0.8 1016.9 20.3
2018-Jan-10 03:00S 37°04' E 069°07'0 0.5 1018.0 20.3
2018-Jan-10 02:00S 37°04' E 069°08'0 0.0 1018.6 20.3
2018-Jan-10 01:00S 37°04' E 069°08'0 0.0 1019.4 20.3
2018-Jan-10 00:00S 37°04' E 069°08'0 0.0 1019.7 20.3
2018-Jan-09 23:00S 37°04' E 069°08'1 0.8 1020.1 20.3
2018-Jan-09 22:00S 37°04' E 069°07'2 0.5 1020.2 20.4
2018-Jan-09 18:00S 37°04' E 069°05'0 0.5 1022.7 20.5
2018-Jan-09 17:00S 37°04' E 069°04'1 1.1 1022.6 20.5
2018-Jan-09 16:00S 37°03' E 069°03'0 0.0 1022.4 20.6
2018-Jan-09 15:00S 37°03' E 069°03'1 0.6 1022.3 20.6
2018-Jan-09 14:00S 37°02' E 069°03'0 0.0 1022.3 20.6
2018-Jan-09 13:00S 37°02' E 069°03'0 0.0 1022.1 20.6
2018-Jan-09 12:00S 37°02' E 069°03'0 0.0 1022.0 20.7
2018-Jan-09 11:00S 37°02' E 069°03'2 1.6 1022.4 20.9
2018-Jan-09 10:00S 37°02' E 069°05'   1023.2 21.0
Track history (hours):
 
Tides and Currents Weather Stations Pressure Air Temp Water Temp Dewpoint Dewpoint Depression Visibility Wind Speed Wind Dir Waves Ship Positions

Drifting buoy 17652

Last reported at 2018-Jan-19 10:00 UTC. Time now 2018-Jan-19 11:45 UTC.
Position S 37°02' E 069°22'.

Barometer 1027.9 mb
Water temperature 20.1 ° C

Date/timePositionNaut miles runAvg speedWind from/ knotsBaromVisibWave heightAir tempDewpointWater temp
2018-Jan-19 10:00S 37°02' E 069°22'2 0.4 1027.9 20.1
2018-Jan-19 05:00S 37°01' E 069°23'0 0.5 1029.4 18.9
2018-Jan-19 04:00S 37°01' E 069°22'0 0.5 1029.3 18.8
2018-Jan-19 03:00S 37°01' E 069°23'0 0.0 1029.6 18.7
2018-Jan-19 02:00S 37°01' E 069°23'1 0.6 1029.7 18.7
2018-Jan-19 01:00S 37°00' E 069°23'0 0.2 1029.4 18.6
2018-Jan-18 23:00S 37°00' E 069°23'0 0.5 1029.1 18.7
2018-Jan-18 22:00S 37°00' E 069°24'1 0.2 1028.9 18.7
2018-Jan-18 18:00S 37°00' E 069°25'0 0.0 1029.7 18.8
2018-Jan-18 17:00S 37°00' E 069°25'0 0.2 1029.9 18.8
2018-Jan-18 15:00S 37°00' E 069°25'1 0.8 1029.2 18.9
2018-Jan-18 14:00S 36°59' E 069°24'0 0.5 1028.7 19.0
2018-Jan-18 13:00S 36°59' E 069°25'2 1.9 1028.5 19.0
2018-Jan-18 12:00S 36°58' E 069°24'4 2.2 1028.6 19.1
2018-Jan-18 10:00S 36°53' E 069°25'0 0.0 1029.0 19.2
2018-Jan-18 05:00S 36°53' E 069°25'0 0.0 1029.8 18.9
2018-Jan-18 04:00S 36°53' E 069°25'3 1.3 1030.0 18.9
2018-Jan-18 02:00S 36°52' E 069°28'0 0.0 1030.3 18.9
2018-Jan-18 01:00S 36°52' E 069°28'0 0.0 1030.0 18.9
2018-Jan-18 00:00S 36°52' E 069°28'0 0.0 1029.6 18.9
2018-Jan-17 23:00S 36°52' E 069°28'0 0.5 1029.3 19.0
2018-Jan-17 22:00S 36°52' E 069°29'0 0.5 1029.3 19.0
2018-Jan-17 21:00S 36°52' E 069°28'0 0.0 1029.8 19.0
2018-Jan-17 18:00S 36°52' E 069°28'1 1.2 1030.7 19.1
2018-Jan-17 17:00S 36°51' E 069°28'1 0.6 1030.7 19.1
2018-Jan-17 16:00S 36°52' E 069°28'1 1.2 1030.5 19.1
2018-Jan-17 15:00S 36°50' E 069°28'1 0.8 1030.2 19.1
2018-Jan-17 14:00S 36°50' E 069°28'1 1.3 1030.3 19.1
2018-Jan-17 13:00S 36°49' E 069°28'0 0.0 1029.8 19.1
2018-Jan-17 12:00S 36°49' E 069°28'2 1.5 1029.6 19.1
2018-Jan-17 11:00S 36°47' E 069°29'4 4.4 1029.9 19.1
2018-Jan-17 10:00S 36°47' E 069°35'1 0.2 1030.2 19.1
2018-Jan-17 05:00S 36°47' E 069°36'0 0.0 1030.9 18.8
2018-Jan-17 04:00S 36°47' E 069°36'1 0.8 1031.0 18.8
2018-Jan-17 03:00S 36°48' E 069°37'1 0.8 1031.0 18.8
2018-Jan-17 02:00S 36°49' E 069°37'0 0.0 1030.9 18.8
2018-Jan-17 01:00S 36°49' E 069°37'0 0.5 1030.8 18.8
2018-Jan-17 00:00S 36°49' E 069°37'0 0.0 1030.6 18.8
2018-Jan-16 23:00S 36°49' E 069°37'2 1.5 1030.4 18.8
2018-Jan-16 22:00S 36°47' E 069°35'0 0.0 1030.5 18.7
2018-Jan-16 21:00S 36°47' E 069°35'7 0.5 1030.6 18.8
2018-Jan-16 05:00S 36°47' E 069°44'1 1.1 1032.2 18.6
2018-Jan-16 04:00S 36°47' E 069°43'1 0.6 1032.0 18.6
2018-Jan-16 03:00S 36°47' E 069°43'0 0.0 1031.7 18.6
2018-Jan-16 02:00S 36°47' E 069°43'1 0.8 1031.3 18.6
2018-Jan-16 01:00S 36°46' E 069°43'0 0.5 1031.1 18.6
2018-Jan-16 00:00S 36°46' E 069°43'1 1.2 1030.9 18.5
2018-Jan-15 23:00S 36°45' E 069°43'0 0.5 1030.7 18.5
2018-Jan-15 22:00S 36°45' E 069°43'0 0.0 1030.8 18.5
2018-Jan-15 21:00S 36°45' E 069°43'5 1.0 1031.1 18.5
2018-Jan-15 16:00S 36°44' E 069°49'2 1.5 1030.8 18.5
2018-Jan-15 15:00S 36°46' E 069°50'1 0.8 1030.3 18.5
2018-Jan-15 14:00S 36°46' E 069°50'1 0.8 1030.0 18.5
2018-Jan-15 13:00S 36°47' E 069°51'1 0.6 1029.2 18.5
2018-Jan-15 12:00S 36°47' E 069°51'1 0.8 1029.0 18.6
2018-Jan-15 11:00S 36°48' E 069°50'1 1.1 1029.1 18.5
2018-Jan-15 10:00S 36°49' E 069°49'0 0.0 1029.2 18.5
2018-Jan-15 05:00S 36°49' E 069°49'0 0.5 1027.5 18.3
2018-Jan-15 04:00S 36°49' E 069°49'0 0.0 1027.3 18.2
2018-Jan-15 03:00S 36°49' E 069°49'1 1.0 1026.6 18.2
2018-Jan-15 02:00S 36°49' E 069°50'1 0.8 1026.0 18.2
2018-Jan-15 01:00S 36°48' E 069°49'5 4.9 1025.4 18.3
2018-Jan-15 00:00S 36°50' E 069°55'0 0.0 1024.6 18.3
2018-Jan-14 22:00S 36°50' E 069°55'0 0.0 1023.6 18.4
2018-Jan-14 21:00S 36°50' E 069°55'1 0.4 1023.2 18.4
2018-Jan-14 18:00S 36°52' E 069°55'0 0.0 1022.1 18.5
2018-Jan-14 17:00S 36°52' E 069°55'1 1.3 1021.6 18.6
2018-Jan-14 16:00S 36°53' E 069°55'0 0.0 1020.7 18.6
2018-Jan-14 15:00S 36°53' E 069°55'2 1.5 1019.6 18.6
2018-Jan-14 14:00S 36°54' E 069°54'1 0.8 1018.7 18.6
2018-Jan-14 13:00S 36°55' E 069°53'1 0.6 1017.9 18.7
2018-Jan-14 12:00S 36°55' E 069°53'3 2.9 1016.9 18.7
2018-Jan-14 11:00S 36°55' E 069°50'2 1.6 1016.6 18.7
2018-Jan-14 10:00S 36°56' E 069°52'1 0.3 1016.4 18.7
2018-Jan-14 05:00S 36°56' E 069°50'0 0.5 1014.0 18.7
2018-Jan-14 04:00S 36°56' E 069°50'0 0.0 1013.3 18.7
2018-Jan-14 03:00S 36°56' E 069°50'1 0.6 1013.0 18.7
2018-Jan-14 02:00S 36°56' E 069°50'1 1.0 1012.3 18.7
2018-Jan-14 01:00S 36°56' E 069°52'2 2.0 1011.8 18.7
2018-Jan-14 00:00S 36°58' E 069°53'2 1.9 1011.1 18.8
2018-Jan-13 23:00S 37°00' E 069°53'17 0.5 1010.3 18.8
2018-Jan-12 13:00S 37°02' E 069°32'0 0.0 1014.4 19.1
2018-Jan-12 12:00S 37°02' E 069°32'3 2.8 1014.1 19.1
2018-Jan-12 11:00S 37°04' E 069°34'1 0.1 1014.4 19.1
2018-Jan-12 05:00S 37°05' E 069°34'2 2.0 1012.8 19.0
2018-Jan-12 04:00S 37°07' E 069°32'0 0.5 1012.2 19.0
2018-Jan-12 03:00S 37°07' E 069°33'4 4.2 1011.7 18.9
2018-Jan-12 02:00S 37°08' E 069°28'2 1.6 1011.1 18.9
2018-Jan-12 01:00S 37°08' E 069°30'2 1.6 1010.1 18.8
2018-Jan-12 00:00S 37°08' E 069°28'0 0.5 1009.4 18.8
2018-Jan-11 23:00S 37°08' E 069°28'2 1.9 1008.9 18.8
2018-Jan-11 22:00S 37°08' E 069°25'0 0.0 1008.1 18.8
2018-Jan-11 21:00S 37°08' E 069°25'2 2.3 1007.7 18.8
2018-Jan-11 20:00S 37°07' E 069°23'0 0.0 1007.5 18.8
2018-Jan-11 18:00S 37°07' E 069°23'1 0.6 1006.6 18.7
2018-Jan-11 17:00S 37°07' E 069°23'1 0.6 1006.2 18.7
2018-Jan-11 16:00S 37°06' E 069°23'0 0.5 1005.4 18.7
2018-Jan-11 15:00S 37°06' E 069°23'1 0.3 1004.7 18.7
2018-Jan-11 13:00S 37°07' E 069°23'0 0.0 1003.5 18.9
2018-Jan-11 12:00S 37°07' E 069°23'0 0.0 1002.7 19.0
2018-Jan-11 11:00S 37°07' E 069°23'8 8.4 1002.7 19.2
2018-Jan-11 10:00S 37°13' E 069°17'0 0.1 1002.2 19.3
2018-Jan-11 05:00S 37°13' E 069°16'2 2.0 996.8 19.8
2018-Jan-11 04:00S 37°14' E 069°14'2 1.6 995.0 19.8
2018-Jan-11 03:00S 37°14' E 069°12'1 1.1 992.7 19.9
2018-Jan-11 02:00S 37°14' E 069°11'0 0.0 991.8 20.0
2018-Jan-11 01:00S 37°14' E 069°11'2 1.6 991.1 20.0
2018-Jan-11 00:00S 37°13' E 069°09'0 0.0 990.3 20.0
2018-Jan-10 23:00S 37°13' E 069°09'1 0.6 990.2 20.0
2018-Jan-10 22:00S 37°13' E 069°09'3 0.7 991.9 20.0
2018-Jan-10 18:00S 37°10' E 069°11'1 0.6 1001.1 20.2
2018-Jan-10 17:00S 37°10' E 069°11'0 0.0 1003.4 20.1
2018-Jan-10 16:00S 37°10' E 069°11'0 0.0 1005.4 20.2
2018-Jan-10 15:00S 37°10' E 069°11'1 1.0 1006.4 20.3
2018-Jan-10 14:00S 37°10' E 069°10'1 0.3 1008.1 20.4
2018-Jan-10 12:00S 37°09' E 069°10'2 0.8 1009.7 20.5
2018-Jan-10 10:00S 37°08' E 069°08'4 0.9 1012.5 20.5
2018-Jan-10 05:00S 37°04' E 069°07'0 0.0 1016.2 20.3
2018-Jan-10 04:00S 37°04' E 069°07'1 0.8 1016.9 20.3
2018-Jan-10 03:00S 37°04' E 069°07'0 0.5 1018.0 20.3
2018-Jan-10 02:00S 37°04' E 069°08'0 0.0 1018.6 20.3
2018-Jan-10 01:00S 37°04' E 069°08'0 0.0 1019.4 20.3
2018-Jan-10 00:00S 37°04' E 069°08'0 0.0 1019.7 20.3
2018-Jan-09 23:00S 37°04' E 069°08'1 0.8 1020.1 20.3
2018-Jan-09 22:00S 37°04' E 069°07'2 0.5 1020.2 20.4
2018-Jan-09 18:00S 37°04' E 069°05'0 0.5 1022.7 20.5
2018-Jan-09 17:00S 37°04' E 069°04'1 1.1 1022.6 20.5
2018-Jan-09 16:00S 37°03' E 069°03'0 0.0 1022.4 20.6
2018-Jan-09 15:00S 37°03' E 069°03'1 0.6 1022.3 20.6
2018-Jan-09 14:00S 37°02' E 069°03'0 0.0 1022.3 20.6
2018-Jan-09 13:00S 37°02' E 069°03'0 0.0 1022.1 20.6
2018-Jan-09 12:00S 37°02' E 069°03'0 0.0 1022.0 20.7
2018-Jan-09 11:00S 37°02' E 069°03'2 1.6 1022.4 20.9
2018-Jan-09 10:00S 37°02' E 069°05'   1023.2 21.0

Dump ship's entire track history